createdAt,value
2023-05-05T00:00:43.105Z,38.75
2023-05-05T00:01:43.164Z,39.70
2023-05-05T00:02:43.293Z,36.16
2023-05-05T00:03:43.382Z,36.32
2023-05-05T00:04:43.362Z,39.04
2023-05-05T00:05:43.429Z,38.71
2023-05-05T00:06:43.431Z,40.84
2023-05-05T00:07:43.753Z,39.75
2023-05-05T00:08:43.559Z,38.12
2023-05-05T00:09:43.603Z,39.90
2023-05-05T00:10:43.711Z,43.99
2023-05-05T00:11:43.738Z,38.89
2023-05-05T00:12:43.839Z,40.90
2023-05-05T00:13:43.871Z,39.83
2023-05-05T00:14:43.902Z,40.47
2023-05-05T00:15:43.954Z,41.08
2023-05-05T00:16:43.979Z,43.97
2023-05-05T00:17:44.057Z,43.13
2023-05-05T00:18:44.088Z,39.95
2023-05-05T00:19:44.148Z,41.67
2023-05-05T00:20:44.172Z,37.10
2023-05-05T00:21:44.195Z,39.62
2023-05-05T00:22:44.780Z,41.93
2023-05-05T00:23:44.308Z,40.01
2023-05-05T00:24:44.372Z,41.38
2023-05-05T00:25:44.436Z,41.83
2023-05-05T00:26:44.433Z,37.87
2023-05-05T00:27:44.495Z,38.73
2023-05-05T00:28:44.528Z,41.98
2023-05-05T00:29:44.588Z,40.56
2023-05-05T00:30:44.643Z,41.97
2023-05-05T00:31:44.736Z,41.40
2023-05-05T00:32:44.755Z,41.25
2023-05-05T00:33:44.792Z,42.31
2023-05-05T00:34:44.862Z,39.87
2023-05-05T00:35:44.877Z,38.88
2023-05-05T00:36:44.913Z,43.02
2023-05-05T00:37:44.991Z,41.29
2023-05-05T00:38:44.994Z,41.56
2023-05-05T00:39:45.043Z,41.66
2023-05-05T00:40:45.116Z,43.80
2023-05-05T00:41:45.160Z,42.33
2023-05-05T00:42:45.231Z,42.30
2023-05-05T00:43:45.280Z,42.25
2023-05-05T00:44:45.343Z,43.58
2023-05-05T00:45:45.385Z,41.92
2023-05-05T00:46:45.471Z,40.16
2023-05-05T00:47:45.558Z,44.08
2023-05-05T00:48:45.546Z,42.07
2023-05-05T00:49:45.623Z,43.70
2023-05-05T00:50:45.693Z,40.67
2023-05-05T00:51:45.745Z,41.90
2023-05-05T00:52:45.802Z,41.24
2023-05-05T00:53:45.851Z,41.60
2023-05-05T00:54:45.894Z,41.86
2023-05-05T00:55:45.977Z,43.17
2023-05-05T00:56:46.041Z,41.46
2023-05-05T00:57:46.098Z,44.20
2023-05-05T00:58:46.110Z,38.73
2023-05-05T00:59:46.207Z,39.66
2023-05-05T01:00:46.225Z,43.57
2023-05-05T01:01:46.414Z,41.77
2023-05-05T01:02:46.410Z,42.41
2023-05-05T01:03:46.469Z,41.09
2023-05-05T01:04:46.439Z,43.55
2023-05-05T01:05:46.505Z,39.79
2023-05-05T01:06:46.529Z,40.77
2023-05-05T01:07:46.564Z,39.55
2023-05-05T01:08:46.626Z,42.42
2023-05-05T01:09:46.686Z,41.79
2023-05-05T01:10:46.748Z,40.91
2023-05-05T01:11:46.794Z,40.14
2023-05-05T01:12:46.921Z,41.93
2023-05-05T01:13:46.927Z,41.02
2023-05-05T01:14:46.989Z,41.29
2023-05-05T01:15:47.034Z,44.01
2023-05-05T01:16:47.109Z,38.96
2023-05-05T01:17:47.224Z,40.74
2023-05-05T01:18:47.218Z,41.69
2023-05-05T01:19:47.264Z,43.55
2023-05-05T01:20:47.336Z,41.62
2023-05-05T01:21:47.379Z,41.89
2023-05-05T01:22:47.457Z,41.02
2023-05-05T01:23:47.497Z,39.51
2023-05-05T01:24:47.575Z,39.06
2023-05-05T01:25:47.611Z,39.77
2023-05-05T01:26:47.684Z,39.90
2023-05-05T01:27:47.742Z,39.16
2023-05-05T01:28:47.777Z,36.95
2023-05-05T01:29:47.847Z,40.36
2023-05-05T01:30:47.894Z,39.80
2023-05-05T01:31:47.961Z,38.71
2023-05-05T01:32:48.047Z,38.55
2023-05-05T01:33:48.041Z,38.22
2023-05-05T01:34:48.089Z,38.53
2023-05-05T01:35:48.126Z,39.03
2023-05-05T01:36:48.207Z,36.42
2023-05-05T01:37:48.274Z,40.79
2023-05-05T01:38:48.275Z,39.01
2023-05-05T01:39:48.362Z,36.08
2023-05-05T01:40:48.428Z,38.72
2023-05-05T01:41:48.478Z,37.49
2023-05-05T01:42:48.507Z,38.26
2023-05-05T01:43:48.589Z,39.21
2023-05-05T01:44:48.665Z,36.12
2023-05-05T01:45:48.732Z,36.14
2023-05-05T01:46:48.724Z,38.56
2023-05-05T01:47:48.808Z,36.46
2023-05-05T01:48:48.871Z,36.52
2023-05-05T01:49:48.914Z,37.15
2023-05-05T01:50:48.945Z,35.69
2023-05-05T01:51:48.985Z,37.29
2023-05-05T01:52:49.068Z,36.34
2023-05-05T01:53:49.141Z,35.45
2023-05-05T01:54:49.205Z,37.73
2023-05-05T01:55:49.261Z,38.16
2023-05-05T01:56:49.340Z,35.71
2023-05-05T01:57:49.381Z,37.63
2023-05-05T01:58:49.416Z,34.61
2023-05-05T01:59:49.493Z,34.92
2023-05-05T02:00:49.570Z,34.51
2023-05-05T02:01:49.618Z,34.90
2023-05-05T02:02:49.769Z,34.64
2023-05-05T02:03:49.703Z,36.02
2023-05-05T02:04:49.762Z,37.17
2023-05-05T02:05:49.846Z,36.11
2023-05-05T02:06:49.922Z,35.40
2023-05-05T02:07:49.986Z,34.83
2023-05-05T02:08:50.083Z,36.75
2023-05-05T02:09:50.122Z,34.96
2023-05-05T02:10:50.133Z,33.60
2023-05-05T02:11:50.221Z,34.79
2023-05-05T02:12:50.294Z,34.33
2023-05-05T02:13:50.380Z,34.93
2023-05-05T02:14:50.335Z,32.96
2023-05-05T02:15:50.426Z,33.64
2023-05-05T02:16:50.447Z,34.11
2023-05-05T02:17:50.433Z,34.83
2023-05-05T02:18:50.501Z,37.46
2023-05-05T02:19:50.515Z,33.82
2023-05-05T02:20:50.589Z,32.75
2023-05-05T02:21:50.630Z,34.01
2023-05-05T02:22:50.669Z,36.23
2023-05-05T02:23:50.757Z,31.98
2023-05-05T02:24:50.786Z,34.74
2023-05-05T02:25:50.865Z,35.67
2023-05-05T02:26:50.909Z,34.88
2023-05-05T02:27:50.949Z,32.94
2023-05-05T02:28:50.990Z,32.20
2023-05-05T02:29:51.002Z,31.82
2023-05-05T02:30:51.078Z,33.50
2023-05-05T02:31:51.181Z,33.01
2023-05-05T02:32:51.293Z,33.00
2023-05-05T02:33:51.197Z,32.90
2023-05-05T02:34:51.275Z,30.99
2023-05-05T02:35:51.305Z,34.85
2023-05-05T02:36:51.355Z,31.31
2023-05-05T02:37:51.408Z,33.87
2023-05-05T02:38:51.441Z,32.71
2023-05-05T02:39:51.472Z,31.45
2023-05-05T02:40:51.517Z,31.31
2023-05-05T02:41:51.563Z,30.52
2023-05-05T02:42:51.673Z,33.36
2023-05-05T02:43:51.635Z,31.11
2023-05-05T02:44:51.642Z,31.15
2023-05-05T02:45:51.717Z,31.53
2023-05-05T02:46:51.802Z,32.78
2023-05-05T02:47:51.822Z,32.00
2023-05-05T02:48:51.813Z,32.91
2023-05-05T02:49:51.852Z,34.39
2023-05-05T02:50:51.884Z,29.16
2023-05-05T02:51:52.082Z,32.97
2023-05-05T02:52:51.970Z,32.50
2023-05-05T02:53:52.050Z,33.17
2023-05-05T02:54:52.096Z,31.45
2023-05-05T02:55:52.131Z,30.01
2023-05-05T02:56:52.220Z,31.14
2023-05-05T02:57:52.250Z,30.68
2023-05-05T02:58:52.291Z,30.65
2023-05-05T02:59:52.339Z,30.20
2023-05-05T03:00:52.342Z,28.98
2023-05-05T03:01:52.521Z,27.88
2023-05-05T03:02:52.476Z,30.33
2023-05-05T03:03:52.652Z,28.24
2023-05-05T03:04:52.466Z,30.00
2023-05-05T03:05:52.546Z,30.52
2023-05-05T03:06:52.591Z,31.44
2023-05-05T03:07:52.645Z,30.86
2023-05-05T03:08:52.681Z,28.87
2023-05-05T03:09:52.633Z,31.56
2023-05-05T03:10:52.668Z,31.57
2023-05-05T03:11:52.673Z,29.95
2023-05-05T03:12:52.783Z,29.47
2023-05-05T03:13:52.665Z,29.66
2023-05-05T03:14:52.705Z,32.18
2023-05-05T03:15:52.742Z,29.80
2023-05-05T03:16:52.705Z,27.55
2023-05-05T03:17:52.819Z,29.28
2023-05-05T03:18:52.694Z,29.65
2023-05-05T03:19:52.747Z,27.79
2023-05-05T03:20:52.741Z,29.78
2023-05-05T03:21:52.712Z,30.38
2023-05-05T03:22:52.752Z,30.95
2023-05-05T03:23:52.833Z,30.69
2023-05-05T03:24:52.764Z,30.85
2023-05-05T03:25:52.772Z,31.23
2023-05-05T03:26:52.803Z,29.31
2023-05-05T03:27:52.782Z,29.27
2023-05-05T03:28:52.807Z,25.34
2023-05-05T03:29:52.793Z,28.87
2023-05-05T03:30:52.812Z,29.05
2023-05-05T03:31:52.839Z,27.67
2023-05-05T03:32:52.825Z,30.65
2023-05-05T03:33:52.827Z,28.13
2023-05-05T03:34:52.820Z,29.98
2023-05-05T03:35:52.794Z,28.45
2023-05-05T03:36:52.850Z,28.48
2023-05-05T03:37:52.857Z,28.88
2023-05-05T03:38:52.881Z,27.55
2023-05-05T03:39:52.892Z,28.25
2023-05-05T03:40:52.862Z,32.85
2023-05-05T03:41:52.882Z,28.81
2023-05-05T03:42:53.331Z,30.05
2023-05-05T03:43:52.866Z,30.24
2023-05-05T03:44:52.846Z,29.26
2023-05-05T03:45:52.916Z,29.94
2023-05-05T03:46:52.872Z,28.81
2023-05-05T03:47:52.932Z,30.72
2023-05-05T03:48:52.886Z,29.95
2023-05-05T03:49:52.851Z,26.43
2023-05-05T03:50:52.861Z,29.17
2023-05-05T03:51:52.876Z,28.77
2023-05-05T03:52:53.325Z,29.55
2023-05-05T03:53:52.874Z,27.48
2023-05-05T03:54:52.862Z,28.90
2023-05-05T03:55:52.879Z,29.99
2023-05-05T03:56:52.851Z,29.76
2023-05-05T03:57:52.851Z,30.17
2023-05-05T03:58:52.818Z,28.97
2023-05-05T03:59:52.824Z,28.26
2023-05-05T04:00:52.859Z,28.39
2023-05-05T04:01:52.816Z,25.00
2023-05-05T04:02:52.894Z,29.59
2023-05-05T04:03:52.909Z,29.21
2023-05-05T04:04:52.830Z,29.07
2023-05-05T04:05:52.848Z,31.43
2023-05-05T04:06:52.851Z,25.91
2023-05-05T04:07:52.857Z,30.32
2023-05-05T04:08:52.872Z,29.38
2023-05-05T04:09:52.876Z,29.31
2023-05-05T04:10:52.842Z,25.55
2023-05-05T04:11:52.838Z,27.29
2023-05-05T04:12:52.896Z,29.60
2023-05-05T04:13:52.834Z,28.59
2023-05-05T04:14:52.848Z,29.76
2023-05-05T04:15:52.886Z,28.26
2023-05-05T04:16:52.825Z,27.63
2023-05-05T04:17:52.857Z,27.97
2023-05-05T04:18:52.824Z,26.83
2023-05-05T04:19:52.847Z,28.35
2023-05-05T04:20:52.804Z,28.86
2023-05-05T04:21:52.818Z,28.97
2023-05-05T04:22:52.931Z,27.98
2023-05-05T04:23:52.851Z,29.19
2023-05-05T04:24:52.788Z,28.74
2023-05-05T04:25:52.815Z,28.17
2023-05-05T04:26:52.779Z,28.25
2023-05-05T04:27:52.799Z,26.23
2023-05-05T04:28:52.791Z,29.30
2023-05-05T04:29:52.765Z,28.85
2023-05-05T04:30:52.886Z,27.02
2023-05-05T04:31:52.732Z,26.36
2023-05-05T04:32:52.849Z,26.39
2023-05-05T04:33:52.771Z,30.00
2023-05-05T04:34:52.757Z,28.79
2023-05-05T04:35:52.730Z,27.08
2023-05-05T04:36:52.752Z,26.28
2023-05-05T04:37:52.750Z,29.44
2023-05-05T04:38:52.766Z,26.36
2023-05-05T04:39:52.726Z,25.70
2023-05-05T04:40:52.743Z,28.17
2023-05-05T04:41:52.754Z,28.58
2023-05-05T04:42:52.754Z,28.13
2023-05-05T04:43:52.723Z,27.00
2023-05-05T04:44:52.731Z,28.41
2023-05-05T04:45:52.804Z,27.28
2023-05-05T04:46:52.809Z,26.59
2023-05-05T04:47:52.791Z,28.72
2023-05-05T04:48:52.750Z,26.19
2023-05-05T04:49:52.728Z,28.14
2023-05-05T04:50:52.742Z,26.09
2023-05-05T04:51:52.761Z,29.73
2023-05-05T04:52:52.902Z,20.41
2023-05-05T04:53:52.766Z,25.00
2023-05-05T04:54:52.734Z,26.80
2023-05-05T04:55:52.753Z,30.14
2023-05-05T04:56:52.754Z,33.83
2023-05-05T04:57:52.787Z,31.01
2023-05-05T04:58:52.765Z,25.42
2023-05-05T04:59:52.774Z,26.40
2023-05-05T05:00:52.805Z,26.61
2023-05-05T05:01:52.805Z,26.47
2023-05-05T05:02:52.890Z,29.17
2023-05-05T05:03:52.871Z,28.07
2023-05-05T05:04:52.834Z,27.50
2023-05-05T05:05:52.807Z,25.16
2023-05-05T05:06:52.853Z,25.00
2023-05-05T05:07:52.851Z,27.81
2023-05-05T05:08:52.856Z,25.91
2023-05-05T05:09:52.907Z,27.57
2023-05-05T05:10:52.879Z,25.52
2023-05-05T05:11:52.911Z,25.79
2023-05-05T05:12:52.949Z,26.64
2023-05-05T05:13:52.903Z,31.11
2023-05-05T05:14:52.939Z,31.20
2023-05-05T05:15:52.954Z,26.93
2023-05-05T05:16:53.064Z,27.95
2023-05-05T05:17:53.060Z,27.16
2023-05-05T05:18:53.043Z,30.29
2023-05-05T05:19:53.035Z,25.48
2023-05-05T05:20:53.034Z,26.51
2023-05-05T05:21:53.101Z,29.19
2023-05-05T05:22:53.090Z,30.74
2023-05-05T05:23:53.126Z,32.49
2023-05-05T05:24:53.119Z,29.51
2023-05-05T05:25:53.153Z,29.90
2023-05-05T05:26:53.149Z,29.26
2023-05-05T05:28:08.421Z,28.67
2023-05-05T05:28:54.360Z,28.75
2023-05-05T05:29:53.214Z,28.74
2023-05-05T05:30:53.154Z,27.01
2023-05-05T05:31:53.192Z,22.90
2023-05-05T05:32:53.236Z,27.93
2023-05-05T05:33:53.366Z,25.00
2023-05-05T05:34:53.151Z,27.73
2023-05-05T05:35:53.156Z,25.00
2023-05-05T05:36:53.102Z,28.63
2023-05-05T05:37:53.170Z,26.26
2023-05-05T05:38:53.120Z,30.67
2023-05-05T05:39:53.199Z,30.09
2023-05-05T05:40:53.076Z,39.80
2023-05-05T05:41:53.192Z,33.00
2023-05-05T05:42:53.098Z,38.40
2023-05-05T05:43:53.100Z,34.64
2023-05-05T05:44:53.460Z,39.95
2023-05-05T05:45:53.152Z,41.02
2023-05-05T05:46:53.073Z,44.47
2023-05-05T05:47:53.087Z,38.56
2023-05-05T05:48:53.060Z,38.96
2023-05-05T05:49:53.087Z,40.46
2023-05-05T05:50:53.078Z,46.91
2023-05-05T05:51:53.083Z,53.79
2023-05-05T05:52:53.094Z,60.95
2023-05-05T05:53:53.165Z,65.85
2023-05-05T05:54:53.128Z,65.84
2023-05-05T05:55:53.107Z,69.34
2023-05-05T05:56:53.174Z,71.63
2023-05-05T05:57:53.143Z,75.44
2023-05-05T05:58:53.173Z,79.44
2023-05-05T05:59:53.123Z,84.76
2023-05-05T06:00:53.115Z,82.24
2023-05-05T06:01:53.105Z,87.28
2023-05-05T06:02:53.188Z,90.86
2023-05-05T06:03:53.460Z,89.98
2023-05-05T06:04:53.091Z,88.53
2023-05-05T06:05:53.144Z,91.86
2023-05-05T06:06:53.113Z,97.28
2023-05-05T06:07:53.093Z,110.10
2023-05-05T06:08:53.381Z,116.21
2023-05-05T06:09:53.176Z,121.12
2023-05-05T06:10:53.236Z,110.31
2023-05-05T06:11:53.253Z,97.84
2023-05-05T06:12:53.240Z,91.59
2023-05-05T06:13:53.211Z,85.25
2023-05-05T06:14:53.246Z,87.25
2023-05-05T06:15:53.231Z,85.15
2023-05-05T06:16:53.212Z,79.46
2023-05-05T06:17:53.273Z,78.09
2023-05-05T06:18:53.245Z,78.04
2023-05-05T06:19:54.521Z,78.64
2023-05-05T06:20:53.226Z,76.83
2023-05-05T06:21:53.214Z,75.52
2023-05-05T06:22:53.224Z,67.55
2023-05-05T06:23:53.362Z,65.50
2023-05-05T06:24:53.215Z,62.60
2023-05-05T06:25:53.242Z,53.42
2023-05-05T06:26:53.247Z,58.49
2023-05-05T06:27:53.302Z,52.37
2023-05-05T06:28:53.376Z,56.06
2023-05-05T06:29:53.360Z,57.45
2023-05-05T06:30:53.348Z,56.45
2023-05-05T06:31:53.443Z,57.46
2023-05-05T06:32:53.525Z,58.24
2023-05-05T06:33:53.942Z,52.63
2023-05-05T06:34:53.547Z,44.74
2023-05-05T06:35:53.563Z,48.93
2023-05-05T06:36:53.656Z,41.05
2023-05-05T06:37:53.689Z,51.90
2023-05-05T06:38:53.893Z,51.55
2023-05-05T06:39:53.796Z,55.85
2023-05-05T06:40:53.817Z,58.14
2023-05-05T06:41:53.823Z,62.36
2023-05-05T06:42:53.884Z,58.78
2023-05-05T06:43:53.910Z,56.21
2023-05-05T06:44:53.942Z,54.15
2023-05-05T06:45:53.980Z,63.49
2023-05-05T06:46:54.063Z,49.00
2023-05-05T06:47:54.035Z,42.70
2023-05-05T06:48:54.017Z,48.52
2023-05-05T06:49:54.018Z,40.31
2023-05-05T06:50:54.008Z,31.26
2023-05-05T06:51:54.158Z,26.69
2023-05-05T06:52:54.055Z,38.62
2023-05-05T06:53:54.051Z,46.54
2023-05-05T06:54:54.065Z,50.72
2023-05-05T06:55:54.067Z,49.43
2023-05-05T06:56:54.117Z,55.04
2023-05-05T06:57:54.103Z,67.15
2023-05-05T06:58:54.138Z,82.27
2023-05-05T06:59:54.151Z,89.57
2023-05-05T07:00:54.215Z,89.46
2023-05-05T07:01:54.103Z,92.31
2023-05-05T07:02:54.211Z,91.46
2023-05-05T07:03:54.461Z,89.64
2023-05-05T07:04:54.122Z,69.50
2023-05-05T07:05:54.134Z,79.07
2023-05-05T07:06:54.104Z,82.28
2023-05-05T07:07:54.195Z,68.52
2023-05-05T07:08:54.142Z,63.50
2023-05-05T07:09:54.179Z,58.59
2023-05-05T07:10:54.190Z,58.07
2023-05-05T07:11:54.174Z,66.17
2023-05-05T07:12:54.257Z,64.74
2023-05-05T07:13:54.241Z,63.41
2023-05-05T07:14:54.273Z,67.18
2023-05-05T07:15:54.278Z,67.18
2023-05-05T07:16:54.343Z,56.97
2023-05-05T07:17:54.507Z,58.19
2023-05-05T07:18:54.387Z,62.87
2023-05-05T07:19:54.307Z,65.81
2023-05-05T07:20:54.514Z,64.13
2023-05-05T07:21:54.398Z,74.45
2023-05-05T07:22:54.354Z,65.53
2023-05-05T07:23:54.450Z,67.57
2023-05-05T07:24:54.376Z,75.69
2023-05-05T07:25:54.431Z,67.24
2023-05-05T07:26:54.435Z,82.42
2023-05-05T07:27:54.536Z,71.97
2023-05-05T07:28:54.563Z,70.55
2023-05-05T07:29:54.606Z,74.09
2023-05-05T07:30:54.640Z,70.20
2023-05-05T07:31:54.739Z,69.30
2023-05-05T07:32:55.076Z,83.32
2023-05-05T07:33:54.800Z,83.08
2023-05-05T07:34:54.848Z,78.06
2023-05-05T07:35:54.917Z,75.63
2023-05-05T07:36:54.904Z,66.75
2023-05-05T07:37:54.953Z,73.25
2023-05-05T07:38:55.042Z,73.35
2023-05-05T07:39:55.138Z,83.56
2023-05-05T07:40:55.168Z,79.36
2023-05-05T07:41:55.201Z,84.73
2023-05-05T07:42:55.273Z,94.79
2023-05-05T07:43:55.320Z,89.96
2023-05-05T07:44:55.379Z,94.55
2023-05-05T07:45:55.464Z,90.58
2023-05-05T07:46:55.488Z,100.90
2023-05-05T07:47:55.639Z,103.96
2023-05-05T07:48:55.641Z,102.81
2023-05-05T07:49:55.659Z,113.30
2023-05-05T07:50:55.688Z,118.60
2023-05-05T07:51:55.737Z,98.99
2023-05-05T07:53:02.378Z,110.29
2023-05-05T07:53:56.797Z,93.21
2023-05-05T07:54:55.819Z,65.65
2023-05-05T07:55:55.874Z,78.75
2023-05-05T07:56:55.761Z,87.47
2023-05-05T07:57:55.784Z,66.18
2023-05-05T07:58:55.926Z,57.12
2023-05-05T07:59:55.784Z,76.89
2023-05-05T08:00:55.734Z,63.18
2023-05-05T08:01:55.727Z,48.30
2023-05-05T08:02:55.872Z,49.93
2023-05-05T08:03:55.963Z,45.33
2023-05-05T08:04:55.898Z,54.02
2023-05-05T08:05:55.973Z,49.37
2023-05-05T08:06:56.003Z,57.45
2023-05-05T08:07:56.088Z,52.59
2023-05-05T08:08:56.127Z,82.23
2023-05-05T08:09:56.204Z,65.39
2023-05-05T08:10:56.249Z,36.62
2023-05-05T08:11:56.375Z,54.57
2023-05-05T08:12:56.332Z,75.14
2023-05-05T08:13:56.292Z,43.54
2023-05-05T08:14:56.312Z,49.72
2023-05-05T08:15:56.355Z,51.91
2023-05-05T08:16:56.358Z,49.88
2023-05-05T08:17:56.448Z,44.27
2023-05-05T08:18:56.506Z,49.90
2023-05-05T08:19:56.506Z,47.35
2023-05-05T08:20:56.538Z,54.62
2023-05-05T08:21:56.577Z,48.08
2023-05-05T08:22:56.572Z,64.18
2023-05-05T08:23:56.620Z,28.46
2023-05-05T08:24:56.631Z,42.80
2023-05-05T08:25:56.653Z,43.98
2023-05-05T08:26:56.757Z,50.45
2023-05-05T08:27:56.902Z,38.81
2023-05-05T08:28:56.850Z,34.99
2023-05-05T08:29:56.865Z,34.46
2023-05-05T08:30:56.877Z,32.69
2023-05-05T08:31:57.005Z,46.51
2023-05-05T08:32:57.000Z,58.65
2023-05-05T08:33:57.028Z,31.77
2023-05-05T08:34:57.052Z,38.74
2023-05-05T08:35:57.031Z,50.83
2023-05-05T08:36:57.037Z,51.35
2023-05-05T08:37:59.079Z,32.70
2023-05-05T08:38:57.119Z,25.00
2023-05-05T08:39:57.941Z,43.94
2023-05-05T08:40:57.204Z,34.41
2023-05-05T08:41:57.229Z,34.73
2023-05-05T08:42:57.280Z,36.74
2023-05-05T08:43:57.380Z,53.37
2023-05-05T08:44:58.918Z,42.71
2023-05-05T08:45:57.364Z,54.23
2023-05-05T08:46:57.421Z,57.96
2023-05-05T08:47:57.492Z,59.11
2023-05-05T08:48:57.538Z,80.31
2023-05-05T08:49:57.571Z,66.29
2023-05-05T08:50:59.860Z,39.00
2023-05-05T08:51:57.517Z,36.89
2023-05-05T08:52:57.556Z,49.91
2023-05-05T08:53:57.602Z,45.30
2023-05-05T08:54:57.503Z,50.61
2023-05-05T08:55:57.540Z,66.69
2023-05-05T08:56:57.472Z,53.40
2023-05-05T08:57:57.567Z,29.28
2023-05-05T08:58:57.487Z,50.39
2023-05-05T08:59:57.637Z,50.44
2023-05-05T09:00:57.531Z,97.40
2023-05-05T09:01:57.496Z,103.63
2023-05-05T09:02:57.612Z,82.08
2023-05-05T09:03:57.435Z,109.30
2023-05-05T09:04:57.996Z,117.49
2023-05-05T09:05:57.399Z,115.84
2023-05-05T09:06:57.415Z,113.14
2023-05-05T09:07:57.435Z,125.60
2023-05-05T09:08:59.520Z,127.85
2023-05-05T09:09:57.407Z,128.64
2023-05-05T09:10:57.411Z,107.12
2023-05-05T09:11:57.361Z,116.32
2023-05-05T09:12:57.447Z,125.06
2023-05-05T09:13:57.506Z,117.82
2023-05-05T09:14:59.395Z,129.25
2023-05-05T09:15:57.598Z,113.02
2023-05-05T09:16:57.703Z,122.58
2023-05-05T09:17:57.665Z,139.86
2023-05-05T09:18:57.686Z,138.07
2023-05-05T09:19:58.014Z,126.77
2023-05-05T09:20:59.468Z,135.05
2023-05-05T09:21:57.779Z,150.39
2023-05-05T09:22:57.814Z,127.11
2023-05-05T09:24:00.370Z,148.89
2023-05-05T09:24:58.860Z,149.23
2023-05-05T09:25:57.864Z,149.95
2023-05-05T09:26:59.122Z,149.19
2023-05-05T09:27:57.891Z,151.44
2023-05-05T09:28:57.842Z,158.06
2023-05-05T09:29:57.958Z,160.08
2023-05-05T09:30:57.916Z,168.29
2023-05-05T09:31:57.985Z,154.58
2023-05-05T09:32:57.856Z,163.17
2023-05-05T09:33:57.802Z,132.60
2023-05-05T09:34:57.989Z,144.39
2023-05-05T09:35:57.755Z,142.16
2023-05-05T09:36:57.762Z,153.36
2023-05-05T09:37:57.807Z,167.26
2023-05-05T09:38:58.853Z,161.00
2023-05-05T09:39:57.763Z,162.86
2023-05-05T09:40:57.774Z,157.83
2023-05-05T09:41:57.753Z,167.49
2023-05-05T09:42:57.715Z,155.80
2023-05-05T09:43:57.705Z,159.51
2023-05-05T09:44:59.737Z,178.60
2023-05-05T09:45:57.753Z,173.11
2023-05-05T09:46:57.741Z,162.89
2023-05-05T09:48:00.153Z,145.72
2023-05-05T09:48:57.793Z,137.44
2023-05-05T09:49:58.014Z,135.80
2023-05-05T09:50:57.773Z,161.54
2023-05-05T09:51:57.737Z,146.66
2023-05-05T09:52:57.730Z,142.84
2023-05-05T09:53:57.712Z,167.30
2023-05-05T09:54:57.691Z,170.26
2023-05-05T09:55:57.694Z,155.97
2023-05-05T09:56:57.699Z,166.53
2023-05-05T09:57:57.724Z,172.85
2023-05-05T09:58:58.720Z,178.96
2023-05-05T09:59:57.665Z,186.00
2023-05-05T10:00:57.689Z,165.46
2023-05-05T10:01:57.704Z,172.00
2023-05-05T10:02:57.719Z,181.60
2023-05-05T10:03:57.743Z,195.98
2023-05-05T10:04:57.861Z,196.73
2023-05-05T10:05:57.660Z,192.01
2023-05-05T10:06:57.606Z,194.40
2023-05-05T10:07:57.603Z,187.59
2023-05-05T10:08:57.616Z,186.02
2023-05-05T10:09:57.593Z,187.20
2023-05-05T10:10:57.611Z,184.51
2023-05-05T10:11:57.559Z,176.32
2023-05-05T10:12:57.578Z,181.84
2023-05-05T10:13:57.593Z,177.53
2023-05-05T10:14:57.563Z,172.46
2023-05-05T10:15:57.718Z,172.92
2023-05-05T10:16:57.570Z,172.07
2023-05-05T10:18:05.768Z,181.08
2023-05-05T10:18:58.530Z,181.14
2023-05-05T10:19:58.054Z,178.22
2023-05-05T10:20:57.518Z,181.21
2023-05-05T10:21:57.517Z,170.52
2023-05-05T10:22:57.498Z,197.33
2023-05-05T10:23:57.462Z,189.88
2023-05-05T10:24:57.530Z,200.61
2023-05-05T10:25:57.475Z,195.76
2023-05-05T10:26:57.540Z,192.55
2023-05-05T10:27:57.583Z,198.58
2023-05-05T10:28:57.622Z,184.59
2023-05-05T10:29:57.983Z,197.75
2023-05-05T10:30:57.702Z,198.17
2023-05-05T10:31:57.763Z,196.24
2023-05-05T10:33:12.358Z,201.79
2023-05-05T10:33:58.941Z,189.67
2023-05-05T10:34:57.985Z,181.33
2023-05-05T10:35:57.850Z,182.04
2023-05-05T10:36:57.777Z,181.08
2023-05-05T10:37:57.755Z,186.66
2023-05-05T10:38:57.810Z,191.74
2023-05-05T10:39:57.971Z,188.68
2023-05-05T10:40:57.743Z,185.09
2023-05-05T10:41:57.768Z,166.82
2023-05-05T10:42:57.830Z,156.82
2023-05-05T10:43:58.019Z,166.32
2023-05-05T10:44:57.987Z,152.85
2023-05-05T10:45:58.153Z,164.23
2023-05-05T10:46:58.121Z,161.29
2023-05-05T10:47:58.201Z,165.73
2023-05-05T10:48:58.233Z,153.94
2023-05-05T10:49:58.544Z,148.66
2023-05-05T10:50:58.322Z,154.07
2023-05-05T10:51:58.334Z,140.06
2023-05-05T10:52:58.386Z,149.63
2023-05-05T10:53:58.438Z,141.79
2023-05-05T10:54:58.352Z,135.38
2023-05-05T10:55:58.397Z,151.19
2023-05-05T10:56:58.399Z,117.02
2023-05-05T10:57:58.376Z,125.70
2023-05-05T10:59:00.089Z,122.13
2023-05-05T10:59:58.536Z,121.58
2023-05-05T11:00:58.441Z,124.99
2023-05-05T11:01:58.384Z,111.52
2023-05-05T11:02:58.440Z,106.48
2023-05-05T11:03:58.432Z,98.82
2023-05-05T11:04:58.347Z,109.45
2023-05-05T11:05:58.407Z,119.96
2023-05-05T11:06:58.408Z,110.21
2023-05-05T11:07:58.437Z,100.69
2023-05-05T11:08:58.392Z,108.73
2023-05-05T11:09:58.519Z,103.98
2023-05-05T11:10:58.366Z,98.52
2023-05-05T11:11:58.371Z,83.52
2023-05-05T11:12:59.016Z,85.13
2023-05-05T11:13:58.396Z,97.92
2023-05-05T11:14:58.495Z,79.70
2023-05-05T11:15:58.392Z,80.17
2023-05-05T11:16:58.408Z,103.57
2023-05-05T11:17:58.467Z,85.72
2023-05-05T11:18:58.394Z,100.39
2023-05-05T11:19:58.497Z,92.02
2023-05-05T11:20:58.434Z,71.92
2023-05-05T11:21:58.436Z,95.05
2023-05-05T11:22:58.448Z,74.97
2023-05-05T11:23:58.468Z,81.46
2023-05-05T11:24:58.455Z,72.21
2023-05-05T11:25:58.507Z,61.88
2023-05-05T11:26:58.485Z,80.65
2023-05-05T11:27:58.530Z,74.33
2023-05-05T11:28:58.548Z,70.67
2023-05-05T11:29:59.019Z,94.51
2023-05-05T11:30:59.046Z,74.98
2023-05-05T11:31:58.630Z,88.49
2023-05-05T11:32:58.587Z,68.19
2023-05-05T11:33:58.586Z,68.29
2023-05-05T11:34:58.611Z,70.90
2023-05-05T11:35:58.609Z,59.16
2023-05-05T11:36:58.655Z,63.27
2023-05-05T11:37:58.631Z,53.09
2023-05-05T11:38:58.702Z,78.42
2023-05-05T11:39:58.719Z,91.77
2023-05-05T11:40:58.693Z,102.94
2023-05-05T11:41:58.703Z,118.63
2023-05-05T11:42:58.701Z,111.92
2023-05-05T11:43:58.717Z,132.72
2023-05-05T11:44:58.707Z,133.73
2023-05-05T11:45:58.689Z,121.73
2023-05-05T11:46:59.485Z,112.69
2023-05-05T11:47:58.800Z,104.20
2023-05-05T11:48:58.750Z,128.00
2023-05-05T11:49:58.790Z,108.12
2023-05-05T11:50:58.854Z,133.85
2023-05-05T11:51:58.910Z,146.13
2023-05-05T11:52:58.988Z,134.21
2023-05-05T11:53:59.318Z,131.92
2023-05-05T11:55:00.134Z,124.28
2023-05-05T11:55:59.164Z,153.95
2023-05-05T11:56:59.258Z,160.27
2023-05-05T11:57:59.330Z,157.96
2023-05-05T11:58:59.326Z,153.81
2023-05-05T11:59:59.389Z,166.92
2023-05-05T12:00:59.460Z,143.78
2023-05-05T12:01:59.513Z,153.52
2023-05-05T12:02:59.659Z,155.54
2023-05-05T12:03:59.771Z,171.36
2023-05-05T12:04:59.719Z,169.46
2023-05-05T12:05:59.790Z,161.25
2023-05-05T12:06:59.869Z,172.85
2023-05-05T12:07:59.922Z,171.29
2023-05-05T12:08:59.939Z,165.62
2023-05-05T12:10:00.041Z,157.05
2023-05-05T12:11:00.153Z,159.54
2023-05-05T12:12:00.093Z,161.79
2023-05-05T12:13:00.230Z,155.91
2023-05-05T12:14:00.196Z,154.71
2023-05-05T12:15:00.575Z,163.50
2023-05-05T12:16:00.345Z,177.28
2023-05-05T12:17:00.381Z,181.99
2023-05-05T12:18:02.727Z,172.72
2023-05-05T12:19:00.442Z,179.39
2023-05-05T12:20:00.437Z,184.40
2023-05-05T12:21:00.407Z,174.86
2023-05-05T12:22:00.410Z,186.75
2023-05-05T12:23:00.424Z,168.21
2023-05-05T12:24:00.399Z,185.05
2023-05-05T12:25:00.596Z,160.92
2023-05-05T12:26:00.369Z,170.07
2023-05-05T12:27:00.492Z,175.77
2023-05-05T12:28:00.371Z,155.30
2023-05-05T12:29:00.388Z,154.69
2023-05-05T12:30:00.320Z,179.68
2023-05-05T12:31:00.506Z,165.86
2023-05-05T12:32:00.385Z,170.61
2023-05-05T12:33:00.396Z,181.48
2023-05-05T12:34:00.311Z,184.11
2023-05-05T12:35:00.352Z,182.26
2023-05-05T12:36:00.308Z,179.76
2023-05-05T12:37:00.435Z,180.76
2023-05-05T12:38:00.345Z,167.13
2023-05-05T12:39:00.343Z,171.43
2023-05-05T12:40:00.324Z,178.61
2023-05-05T12:41:00.263Z,189.67
2023-05-05T12:42:00.291Z,193.27
2023-05-05T12:43:00.415Z,160.89
2023-05-05T12:44:00.266Z,178.06
2023-05-05T12:45:00.535Z,172.48
2023-05-05T12:46:00.274Z,159.96
2023-05-05T12:47:00.211Z,154.12